createdAt,value
2023-10-21T00:03:21.146Z,100950.63
2023-10-21T00:08:24.207Z,100943.16
2023-10-21T00:13:27.056Z,100937.66
2023-10-21T00:18:30.515Z,100947.28
2023-10-21T00:23:34.002Z,100950.31
2023-10-21T00:28:37.112Z,100937.03
2023-10-21T00:33:40.735Z,100919.44
2023-10-21T00:38:43.980Z,100921.06
2023-10-21T00:43:47.062Z,100938.44
2023-10-21T00:48:51.120Z,100895.44
2023-10-21T00:53:54.485Z,100919.09
2023-10-21T00:58:58.035Z,100916.06
2023-10-21T01:04:01.390Z,100915.56
2023-10-21T01:09:04.795Z,100904.75
2023-10-21T01:14:08.969Z,100917.69
2023-10-21T01:19:15.227Z,100876.84
2023-10-21T01:24:18.942Z,100887.09
2023-10-21T01:29:22.330Z,100892.06
2023-10-21T01:34:25.647Z,100891.47
2023-10-21T01:39:28.992Z,100874.97
2023-10-21T01:44:31.958Z,100871.34
2023-10-21T01:49:35.053Z,100877.69
2023-10-21T01:54:38.758Z,100871.06
2023-10-21T01:59:42.491Z,100860.81
2023-10-21T02:04:45.644Z,100855.59
2023-10-21T02:09:49.830Z,100840.38
2023-10-21T02:14:53.246Z,100842.63
2023-10-21T02:20:00.407Z,100846.38
2023-10-21T02:25:12.947Z,100823.81
2023-10-21T02:30:18.512Z,100820.22
2023-10-21T02:35:22.469Z,100819.72
2023-10-21T02:40:25.473Z,100809.50
2023-10-21T02:45:28.795Z,100810.63
2023-10-21T02:50:31.800Z,100799.84
2023-10-21T02:55:34.937Z,100803.69
2023-10-21T03:00:37.876Z,100799.91
2023-10-21T03:05:41.428Z,100798.81
2023-10-21T03:10:44.507Z,100794.88
2023-10-21T03:15:47.385Z,100801.50
2023-10-21T03:20:54.257Z,100790.50
2023-10-21T03:26:02.624Z,100797.66
2023-10-21T03:31:05.752Z,100789.50
2023-10-21T03:36:09.137Z,100779.31
2023-10-21T03:41:13.714Z,100777.44
2023-10-21T03:46:16.729Z,100765.03
2023-10-21T03:51:20.425Z,100783.63
2023-10-21T03:56:23.455Z,100803.03
2023-10-21T04:01:26.540Z,100820.41
2023-10-21T04:06:29.731Z,100817.31
2023-10-21T04:11:32.775Z,100779.28
2023-10-21T04:16:35.956Z,100780.28
2023-10-21T04:21:39.031Z,100786.63
2023-10-21T04:26:42.307Z,100777.56
2023-10-21T04:31:45.538Z,100780.28
2023-10-21T04:36:48.462Z,100788.22
2023-10-21T04:41:51.473Z,100779.22
2023-10-21T04:46:54.648Z,100779.66
2023-10-21T04:51:57.630Z,100767.25
2023-10-21T04:57:00.936Z,100765.84
2023-10-21T05:02:05.778Z,100766.41
2023-10-21T05:07:09.254Z,100763.72
2023-10-21T05:12:12.768Z,100762.56
2023-10-21T05:17:16.164Z,100775.97
2023-10-21T05:22:19.877Z,100767.41
2023-10-21T05:27:23.440Z,100754.44
2023-10-21T05:32:26.329Z,100743.09
2023-10-21T05:37:29.747Z,100741.97
2023-10-21T05:42:34.443Z,100725.69
2023-10-21T05:47:37.764Z,100727.38
2023-10-21T05:52:40.983Z,100710.69
2023-10-21T05:57:44.378Z,100697.22
2023-10-21T06:02:47.485Z,100698.47
2023-10-21T06:07:50.549Z,100697.28
2023-10-21T06:12:53.570Z,100702.00
2023-10-21T06:17:56.623Z,100696.97
2023-10-21T06:22:59.838Z,100689.41
2023-10-21T06:28:03.001Z,100676.41
2023-10-21T06:33:06.236Z,100677.34
2023-10-21T06:38:09.858Z,100671.28
2023-10-21T06:43:13.259Z,100656.66
2023-10-21T06:48:16.633Z,100660.13
2023-10-21T06:53:19.864Z,100652.00
2023-10-21T06:58:23.123Z,100653.50
2023-10-21T07:03:26.776Z,100662.66
2023-10-21T07:08:29.936Z,100671.84
2023-10-21T07:13:32.931Z,100673.28
2023-10-21T07:18:35.946Z,100679.88
2023-10-21T07:23:39.211Z,100666.03
2023-10-21T07:28:42.625Z,100663.25
2023-10-21T07:33:45.653Z,100652.94
2023-10-21T07:38:49.027Z,100662.91
2023-10-21T07:43:51.988Z,100647.75
2023-10-21T07:48:55.011Z,100633.28
2023-10-21T07:53:57.996Z,100644.84
2023-10-21T07:59:01.012Z,100649.19
2023-10-21T08:04:04.400Z,100646.34
2023-10-21T08:09:09.776Z,100649.34
2023-10-21T08:14:13.876Z,100630.50
2023-10-21T08:19:18.733Z,100630.25
2023-10-21T08:24:22.223Z,100617.31
2023-10-21T08:29:25.302Z,100602.59
2023-10-21T08:34:28.381Z,100589.28
2023-10-21T08:39:32.325Z,100593.72
2023-10-21T08:44:35.507Z,100586.16
2023-10-21T08:49:40.618Z,100584.47
2023-10-21T08:54:47.565Z,100556.97
2023-10-21T08:59:53.807Z,100574.13
2023-10-21T09:04:57.086Z,100574.81
2023-10-21T09:10:13.052Z,100566.59
2023-10-21T09:15:16.541Z,100585.22
2023-10-21T09:20:23.584Z,100580.44
2023-10-21T09:25:28.642Z,100581.66
2023-10-21T09:30:32.319Z,100588.88
2023-10-21T09:35:39.124Z,100597.59
2023-10-21T09:40:44.949Z,100583.88
2023-10-21T09:45:51.460Z,100580.06
2023-10-21T09:50:58.430Z,100577.91
2023-10-21T09:56:02.710Z,100568.34
2023-10-21T10:01:07.412Z,100559.38
2023-10-21T10:06:11.857Z,100530.78
2023-10-21T10:11:17.141Z,100546.03
2023-10-21T10:16:29.779Z,100549.53
2023-10-21T10:21:35.605Z,100538.63
2023-10-21T10:26:39.826Z,100531.06
2023-10-21T10:31:49.162Z,100540.13
2023-10-21T10:36:53.083Z,100524.88
2023-10-21T10:41:59.838Z,100513.38
2023-10-21T10:47:06.449Z,100514.88
2023-10-21T10:52:09.784Z,100532.16
2023-10-21T10:57:18.871Z,100552.28
2023-10-21T11:02:26.250Z,100534.78
2023-10-21T11:07:32.814Z,100531.56
2023-10-21T11:12:36.199Z,100527.69
2023-10-21T11:17:41.871Z,100527.19
2023-10-21T11:22:46.927Z,100541.75
2023-10-21T11:27:53.301Z,100537.25
2023-10-21T11:32:57.371Z,100534.88
2023-10-21T11:38:01.819Z,100545.59
2023-10-21T11:43:15.902Z,100552.63
2023-10-21T11:48:19.553Z,100545.78
2023-10-21T11:53:22.779Z,100554.19
2023-10-21T11:58:46.377Z,100561.50
2023-10-21T12:03:49.800Z,100570.09
2023-10-21T12:09:15.352Z,100556.13
2023-10-21T12:14:24.663Z,100555.63
2023-10-21T12:20:01.105Z,100542.19
2023-10-21T12:25:24.556Z,100575.84
2023-10-21T12:30:48.136Z,100595.97
2023-10-21T12:36:11.657Z,100588.66
2023-10-21T12:41:27.653Z,100578.50
2023-10-21T12:46:40.063Z,100578.34
2023-10-21T12:51:43.939Z,100602.75
2023-10-21T12:56:47.016Z,100591.88
2023-10-21T13:01:50.591Z,100584.56
2023-10-21T13:06:55.305Z,100589.38
2023-10-21T13:11:59.552Z,100589.94
2023-10-21T13:17:03.227Z,100653.88
2023-10-21T13:22:08.248Z,100671.75
2023-10-21T13:27:11.732Z,100714.59
2023-10-21T13:32:17.885Z,100729.03
2023-10-21T13:37:23.908Z,100730.44
2023-10-21T13:42:27.149Z,100759.06
2023-10-21T13:47:30.807Z,100787.44
2023-10-21T13:52:34.369Z,100795.38
2023-10-21T13:57:37.873Z,100827.28
2023-10-21T14:02:41.457Z,100838.56
2023-10-21T14:07:44.906Z,100843.16
2023-10-21T14:12:50.155Z,100860.19
2023-10-21T14:17:53.395Z,100862.81
2023-10-21T14:22:57.489Z,100898.91
2023-10-21T14:28:02.431Z,100907.59
2023-10-21T14:33:06.624Z,100919.63
2023-10-21T14:38:10.182Z,100955.47
2023-10-21T14:43:15.627Z,100951.84
2023-10-21T14:48:25.877Z,100957.47
2023-10-21T14:53:29.179Z,101013.88
2023-10-21T14:58:32.529Z,101000.06
2023-10-21T15:03:37.413Z,100993.94
2023-10-21T15:08:43.055Z,101019.16
2023-10-21T15:13:46.635Z,101044.31
2023-10-21T15:18:51.803Z,101057.66
2023-10-21T15:23:57.716Z,101064.03
2023-10-21T15:29:01.319Z,101072.94
2023-10-21T15:34:07.419Z,101092.06
2023-10-21T15:39:20.656Z,101121.59
2023-10-21T15:44:25.549Z,101109.94
2023-10-21T15:49:31.162Z,101136.38
2023-10-21T15:54:34.650Z,101134.97
2023-10-21T15:59:38.351Z,101163.63
2023-10-21T16:04:41.802Z,101162.75
2023-10-21T16:09:46.070Z,101168.13
2023-10-21T16:14:49.962Z,101185.59
2023-10-21T16:19:53.411Z,101157.47
2023-10-21T16:24:56.958Z,101175.41
2023-10-21T16:30:01.775Z,101195.28
2023-10-21T16:35:07.333Z,101190.16
2023-10-21T16:40:11.980Z,101201.22
2023-10-21T16:45:15.486Z,101215.28
2023-10-21T16:50:20.943Z,101221.75
2023-10-21T16:55:24.200Z,101239.31
2023-10-21T17:00:28.960Z,101245.66
2023-10-21T17:05:33.722Z,101255.47
2023-10-21T17:10:37.289Z,101262.09
2023-10-21T17:15:40.973Z,101285.25
2023-10-21T17:20:44.899Z,101322.31
2023-10-21T17:25:49.034Z,101318.41
2023-10-21T17:30:53.461Z,101346.50
2023-10-21T17:35:56.891Z,101356.34
2023-10-21T17:41:01.664Z,101372.53
2023-10-21T17:46:06.130Z,101354.41
2023-10-21T17:51:11.453Z,101389.06
2023-10-21T17:56:15.062Z,101398.31
2023-10-21T18:01:18.450Z,101385.81
2023-10-21T18:06:21.881Z,101420.13
2023-10-21T18:11:25.808Z,101424.91
2023-10-21T18:16:29.595Z,101448.59
2023-10-21T18:21:33.016Z,101457.63
2023-10-21T18:26:36.441Z,101440.84
2023-10-21T18:31:39.822Z,101451.84
2023-10-21T18:36:43.428Z,101453.06
2023-10-21T18:41:48.580Z,101493.66
2023-10-21T18:46:52.056Z,101501.19
2023-10-21T18:51:55.357Z,101520.44
2023-10-21T18:56:58.885Z,101515.78
2023-10-21T19:02:01.918Z,101522.28
2023-10-21T19:07:06.143Z,101548.97
2023-10-21T19:12:10.864Z,101536.91
2023-10-21T19:17:14.405Z,101556.78
2023-10-21T19:22:17.773Z,101554.97
2023-10-21T19:27:21.035Z,101556.78
2023-10-21T19:32:24.766Z,101565.97
2023-10-21T19:37:27.940Z,101567.44
2023-10-21T19:42:31.044Z,101562.03
2023-10-21T19:47:34.216Z,101582.19
2023-10-21T19:52:37.820Z,101596.31
2023-10-21T19:57:41.064Z,101588.34
2023-10-21T20:02:44.168Z,101597.19
2023-10-21T20:07:47.809Z,101614.41
2023-10-21T20:12:51.349Z,101624.69
2023-10-21T20:17:54.498Z,101634.63
2023-10-21T20:22:57.628Z,101652.28
2023-10-21T20:28:00.939Z,101652.44
2023-10-21T20:33:04.206Z,101670.19
2023-10-21T20:38:07.307Z,101673.47
2023-10-21T20:43:10.246Z,101689.16
2023-10-21T20:48:13.613Z,101663.38
2023-10-21T20:53:16.916Z,101661.09
2023-10-21T20:58:20.084Z,101674.94
2023-10-21T21:03:24.878Z,101681.81
2023-10-21T21:08:28.111Z,101685.44
2023-10-21T21:13:31.165Z,101715.47
2023-10-21T21:18:34.134Z,101706.47
2023-10-21T21:23:37.003Z,101729.34
2023-10-21T21:28:39.942Z,101743.44
2023-10-21T21:33:43.426Z,101756.19
2023-10-21T21:38:46.620Z,101759.56
2023-10-21T21:43:49.769Z,101770.81
2023-10-21T21:48:52.812Z,101771.59
2023-10-21T21:53:57.068Z,101789.19
2023-10-21T21:59:04.165Z,101795.56
2023-10-21T22:04:09.434Z,101804.25
2023-10-21T22:09:15.422Z,101820.50
2023-10-21T22:14:18.369Z,101830.75
2023-10-21T22:19:21.935Z,101834.81
2023-10-21T22:24:25.304Z,101840.66
2023-10-21T22:29:31.057Z,101840.56
2023-10-21T22:34:34.995Z,101840.31
2023-10-21T22:39:38.723Z,101841.00
2023-10-21T22:44:42.539Z,101840.00
2023-10-21T22:49:45.777Z,101860.19
2023-10-21T22:54:48.762Z,101865.00
2023-10-21T22:59:56.494Z,101865.22
2023-10-21T23:04:59.706Z,101877.59
2023-10-21T23:10:10.006Z,101888.34
2023-10-21T23:15:16.354Z,101877.13
2023-10-21T23:20:19.986Z,101893.53
2023-10-21T23:25:23.186Z,101897.56
2023-10-21T23:30:28.437Z,101896.28
2023-10-21T23:35:31.548Z,101900.50
2023-10-21T23:40:36.004Z,101894.41
2023-10-21T23:45:39.108Z,101886.38
2023-10-21T23:50:42.340Z,101905.13
2023-10-21T23:55:45.494Z,101909.94
